Latest Weather Observations for Gove Airport

IDD60801

Issued at 8:31 am CST Wednesday 22 February 2017 (issued every 30 minutes, with the page automatically refreshed every 10 minutes)

About weather observations | Map of weather stations | Latest weather observations for NT | Other Formats
Station Details ID: 014508 Name: GOVE AIRPORT Lat: -12.27 Lon: 136.82 Height: 51.6 m
Data from the previous 72 hours. | See also: Recent months at Gove Airport
Date/Time
CST
Temp
°C
App
Temp
°C
Dew
Point
°C
Rel
Hum
%
Delta-T
°C
Wind Press
QNH
hPa
Press
MSL
hPa
Rain since
9am
mm
Dir  Spd
km/h
Gust
km/h
Spd
kts
Gust
kts
22/08:00am 28.4 30.9 23.8 76 3.2 NW 17 26 9 14 1010.9 1010.5 0.0
22/07:30am 28.0 31.1 25.4 86 1.8 NW 19 24 10 13 1010.5 1010.1 0.0
22/07:00am 26.5 30.9 25.1 92 1.0 NNW 11 13 6 7 1010.2 1009.8 0.0
22/06:30am 25.5 29.6 24.0 91 1.0 NW 9 11 5 6 1009.9 1009.5 0.0
22/06:00am 25.1 29.6 23.9 93 0.8 NNW 7 9 4 5 1009.7 1009.3 0.0
22/05:30am 25.8 29.3 23.6 88 1.5 NW 11 15 6 8 1009.4 1009.0 0.0
22/05:00am 26.3 29.5 25.0 92 0.9 NNW 17 20 9 11 1009.3 1008.9 0.0
22/04:30am 26.2 31.1 25.2 94 0.7 NW 9 13 5 7 1009.3 1008.9 0.0
22/04:00am 26.1 31.1 25.4 96 0.5 NNW 9 11 5 6 1009.0 1008.6 0.0
22/03:30am 26.3 30.9 25.3 94 0.7 NNW 11 13 6 7 1008.9 1008.5 0.0
22/03:00am 26.4 31.0 25.3 94 0.8 NW 11 15 6 8 1009.1 1008.7 0.0
22/02:30am 26.5 31.4 25.2 92 0.9 NW 9 11 5 6 1009.3 1008.9 0.0
22/02:00am 25.9 31.2 24.9 94 0.7 NW 6 7 3 4 1009.4 1009.0 0.0
22/01:30am 25.5 31.7 24.6 95 0.6 CALM 0 0 0 0 1009.6 1009.2 0.0
22/01:00am 25.5 31.6 24.5 94 0.7 CALM 0 0 0 0 1009.8 1009.4 0.0
22/12:30am 25.4 31.4 24.2 93 0.8 CALM 0 0 0 0 1009.9 1009.5 0.0
22/12:00am 25.6 31.6 24.3 92 0.9 CALM 0 0 0 0 1010.1 1009.7 0.0
 
Date/Time
CST
Temp
°C
App
Temp
°C
Dew
Point
°C
Rel
Hum
%
Delta-T
°C
Wind Press
QNH
hPa
Press
MSL
hPa
Rain since
9am
mm
Dir  Spd
km/h
Gust
km/h
Spd
kts
Gust
kts
21/11:30pm 25.6 31.6 24.3 92 0.9 CALM 0 0 0 0 1010.2 1009.8 0.0
21/11:00pm 25.6 31.6 24.3 92 0.9 CALM 0 0 0 0 1010.4 1010.0 0.0
21/10:30pm 25.8 31.9 24.4 92 1.0 CALM 0 0 0 0 1010.4 1010.0 0.0
21/10:00pm 26.3 31.2 23.7 85 1.8 SSW 4 7 2 4 1010.1 1009.7 0.0
21/09:30pm 26.5 30.8 23.3 82 2.2 WSW 6 11 3 6 1009.8 1009.4 0.0
21/09:00pm 27.3 30.2 23.1 78 2.9 NNW 13 15 7 8 1009.2 1008.8 0.0
21/08:30pm 27.3 30.0 22.9 77 3.0 NNW 13 15 7 8 1009.0 1008.6 0.0
21/08:00pm 27.4 30.5 22.8 76 3.1 NNW 11 13 6 7 1008.9 1008.5 0.0
21/07:30pm 27.9 30.7 22.3 71 3.8 NW 11 15 6 8 1008.8 1008.4 0.0
21/07:00pm 28.4 30.7 22.0 68 4.3 NW 13 17 7 9 1008.6 1008.2 0.0
21/06:30pm 29.4 30.4 21.0 60 5.6 NW 17 22 9 12 1008.3 1007.9 0.0
21/06:00pm 30.4 31.5 21.3 58 6.1 NW 17 24 9 13 1007.8 1007.4 0.0
21/05:30pm 30.6 31.5 21.9 59 5.9 NW 20 26 11 14 1007.1 1006.8 0.0
21/05:00pm 30.6 31.0 21.7 59 6.0 NNW 22 35 12 19 1006.8 1006.5 0.0
21/04:30pm 31.1 31.2 21.8 57 6.3 NNW 24 33 13 18 1006.8 1006.5 0.0
21/04:00pm 31.2 30.4 21.6 56 6.5 NNW 28 37 15 20 1006.9 1006.6 0.0
21/03:30pm 31.5 30.9 22.6 59 6.1 NNW 30 43 16 23 1007.2 1006.9 0.0
21/03:00pm 31.7 31.1 22.0 56 6.6 NNW 28 37 15 20 1007.7 1007.3 0.0
21/02:30pm 31.7 30.6 21.8 55 6.7 NNW 30 39 16 21 1008.1 1007.7 0.0
21/02:00pm 31.5 31.2 21.9 56 6.5 NNW 26 33 14 18 1008.5 1008.1 0.0
21/01:30pm 31.0 31.3 21.5 57 6.4 NNW 22 32 12 17 1008.8 1008.4 0.0
21/01:00pm 31.2 31.6 21.8 57 6.4 NNW 22 32 12 17 1009.4 1009.0 0.0
21/12:30pm 31.4 30.9 19.0 47 8.1 NW 20 30 11 16 1009.8 1009.4 0.0
21/12:00pm 31.1 30.4 19.5 50 7.6 NW 22 32 12 17 1010.1 1009.7 0.0
21/11:30am 30.7 30.6 19.9 52 7.1 NW 20 30 11 16 1010.4 1010.0 0.0
21/11:00am 30.1 30.1 20.1 55 6.6 NNW 20 26 11 14 1010.7 1010.3 0.0
21/10:30am 29.6 30.9 20.9 59 5.8 WNW 15 20 8 11 1010.9 1010.5 0.0
21/10:00am 28.8 30.4 20.7 61 5.4 W 13 20 7 11 1011.0 1010.6 0.0
21/09:30am 28.6 30.0 20.3 60 5.5 WNW 13 20 7 11 1011.1 1010.7 0.0
21/09:00am 28.3 30.4 20.9 64 4.9 WNW 11 17 6 9 1010.8 1010.4 0.4
21/08:30am 27.8 29.3 20.5 64 4.8 WNW 13 20 7 11 1010.5 1010.1 0.4
21/08:00am 26.8 29.5 21.4 72 3.6 WNW 9 13 5 7 1010.0 1009.6 0.4
21/07:30am 25.8 28.7 21.0 75 3.2 W 7 9 4 5 1009.6 1009.2 0.4
21/07:00am 24.7 27.4 20.7 78 2.6 WNW 7 9 4 5 1009.2 1008.8 0.4
21/06:30am 23.8 26.5 20.6 82 2.1 WNW 7 9 4 5 1009.0 1008.6 0.4
21/06:00am 23.6 25.9 20.7 84 1.9 NW 9 11 5 6 1008.9 1008.5 0.4
21/05:30am 23.7 26.4 20.6 83 2.0 WNW 7 9 4 5 1008.4 1008.0 0.4
21/05:00am 23.7 26.7 20.8 84 1.9 W 6 9 3 5 1007.9 1007.5 0.4
21/04:30am 24.1 26.8 20.7 81 2.2 W 7 9 4 5 1007.6 1007.2 0.4
21/04:00am 24.3 26.7 20.8 81 2.3 WSW 9 13 5 7 1007.2 1006.9 0.4
21/03:30am 24.3 27.3 21.3 83 2.0 W 7 11 4 6 1007.1 1006.8 0.4
21/03:00am 24.4 27.5 21.5 84 1.9 W 7 11 4 6 1007.2 1006.9 0.4
21/02:30am 24.6 27.5 21.7 84 1.9 W 9 13 5 7 1007.5 1007.1 0.4
21/02:00am 24.8 28.4 22.3 86 1.7 W 7 11 4 6 1007.8 1007.4 0.4
21/01:30am 24.5 28.3 22.7 90 1.2 W 7 11 4 6 1008.1 1007.7 0.4
21/01:00am 24.5 28.4 23.0 91 1.0 WNW 7 9 4 5 1008.3 1007.9 0.4
21/12:30am 24.8 28.7 22.9 89 1.3 WNW 7 11 4 6 1008.6 1008.2 0.4
21/12:00am 25.2 28.7 22.8 86 1.6 W 9 13 5 7 1008.5 1008.1 0.4
 
Date/Time
CST
Temp
°C
App
Temp
°C
Dew
Point
°C
Rel
Hum
%
Delta-T
°C
Wind Press
QNH
hPa
Press
MSL
hPa
Rain since
9am
mm
Dir  Spd
km/h
Gust
km/h
Spd
kts
Gust
kts
20/11:30pm 25.0 29.3 23.7 92 0.9 W 7 11 4 6 1008.7 1008.3 0.4
20/11:00pm 25.1 29.9 24.1 94 0.7 W 6 9 3 5 1008.8 1008.4 0.4
20/10:30pm 25.4 29.8 23.8 91 1.1 WNW 7 11 4 6 1008.9 1008.5 0.4
20/10:00pm 25.4 30.0 24.1 92 0.9 WNW 7 9 4 5 1008.9 1008.5 0.4
20/09:30pm 25.4 30.0 24.1 92 0.9 WNW 7 9 4 5 1008.8 1008.4 0.4
20/09:00pm 25.7 30.5 24.4 92 0.9 NNW 7 9 4 5 1008.6 1008.2 0.4
20/08:30pm 25.7 31.7 24.3 92 1.0 CALM 0 0 0 0 1008.3 1007.9 0.4
20/08:00pm 25.9 31.1 24.2 90 1.2 SW 4 7 2 4 1008.1 1007.7 0.4
20/07:30pm 26.1 32.1 24.2 89 1.3 CALM 0 4 0 2 1007.8 1007.4 0.4
20/07:15pm 26.1 30.9 24.4 90 1.2 W 7 13 4 7 1007.6 1007.2 0.4
20/07:00pm 26.6 30.4 24.0 86 1.8 W 11 17 6 9 1007.3 1007.0 0.4
20/06:56pm 27.4 31.6 24.1 82 2.3 WNW 9 17 5 9 1007.3 1007.0 0.2
20/06:30pm 28.5 34.1 23.6 75 3.4 CALM 0 0 0 0 1006.8 1006.5 0.2
20/06:00pm 28.6 32.9 24.3 77 3.0 NW 9 13 5 7 1006.4 1006.1 0.2
20/05:30pm 29.1 32.2 23.6 72 3.8 NW 13 17 7 9 1005.8 1005.5 0.2
20/05:00pm 29.3 32.6 23.2 69 4.2 NW 11 17 6 9 1005.5 1005.2 0.2
20/04:30pm 29.5 32.3 23.7 71 4.0 NNW 15 19 8 10 1005.4 1005.1 0.2
20/04:00pm 29.6 31.6 22.9 67 4.6 NW 17 24 9 13 1005.5 1005.2 0.2
20/03:30pm 29.8 31.7 22.8 66 4.8 NW 17 24 9 13 1005.4 1005.1 0.2
20/03:00pm 29.5 31.3 22.6 66 4.7 NW 17 26 9 14 1005.3 1005.0 0.2
20/02:30pm 29.7 31.5 23.2 68 4.5 NW 19 24 10 13 1005.2 1004.9 0.2
20/02:00pm 29.8 31.6 22.5 65 5.0 NW 17 28 9 15 1005.4 1005.1 0.2
20/01:30pm 29.6 31.5 22.7 66 4.7 NW 17 24 9 13 1005.9 1005.6 0.2
20/01:00pm 28.5 30.4 22.8 71 3.9 NW 17 24 9 13 1006.6 1006.3 0.2
20/12:30pm 28.2 30.5 22.8 72 3.7 NW 15 22 8 12 1006.9 1006.6 0.2
20/12:00pm 28.5 30.2 22.3 69 4.2 NW 17 24 9 13 1007.0 1006.7 0.2
20/11:30am 28.4 30.9 22.5 70 4.0 WNW 13 20 7 11 1007.1 1006.8 0.2
20/11:00am 27.9 29.5 22.1 70 3.9 NW 17 22 9 12 1007.2 1006.9 0.2
20/10:30am 28.2 30.1 22.0 69 4.2 NW 15 22 8 12 1007.0 1006.7 0.2
20/10:00am 27.4 29.9 22.4 74 3.4 NW 13 19 7 10 1007.0 1006.7 0.0
20/09:30am 26.8 29.3 22.4 77 3.0 W 13 20 7 11 1007.3 1007.0 0.0
20/09:00am 26.9 28.9 22.3 76 3.1 W 15 24 8 13 1007.5 1007.1 7.6
20/08:30am 26.1 28.7 22.6 81 2.4 NW 13 20 7 11 1007.7 1007.3 7.6
20/08:00am 24.9 28.0 22.1 84 1.9 WNW 9 13 5 7 1007.0 1006.7 7.6
20/07:30am 24.5 27.8 21.8 85 1.8 W 7 11 4 6 1006.4 1006.1 7.6
20/07:00am 24.2 27.0 21.6 85 1.7 W 9 13 5 7 1005.9 1005.6 7.6
20/06:30am 24.2 26.0 21.8 86 1.6 WSW 15 20 8 11 1005.7 1005.4 7.6
20/06:00am 24.3 27.1 23.0 92 0.9 W 13 20 7 11 1005.2 1004.9 7.6
20/05:58am 24.3 27.1 23.0 92 0.9 W 13 20 7 11 1005.1 1004.8 7.6
20/05:38am 24.5 27.0 23.2 92 0.9 W 15 30 8 16 1005.1 1004.8 7.6
20/05:30am 24.7 27.8 22.9 90 1.2 W 11 20 6 11 1005.0 1004.7 7.6
20/05:00am 24.5 27.3 23.0 91 1.0 WNW 13 20 7 11 1004.7 1004.4 7.6
20/04:30am 24.5 27.7 23.0 91 1.0 W 11 17 6 9 1004.3 1004.0 7.6
20/04:00am 24.5 27.3 23.0 91 1.0 WNW 13 19 7 10 1004.3 1004.0 7.6
20/03:30am 24.6 27.5 23.1 91 1.0 WNW 13 20 7 11 1004.6 1004.3 7.6
20/03:09am 24.7 27.7 23.4 92 0.9 W 13 20 7 11 1005.0 1004.7 7.6
20/03:00am 24.8 27.9 23.5 92 0.9 W 13 19 7 10 1005.0 1004.7 7.6
20/02:30am 24.9 27.6 23.4 91 1.0 WNW 15 24 8 13 1005.4 1005.1 7.6
20/02:00am 24.8 28.4 23.8 94 0.7 WNW 11 24 6 13 1005.3 1005.0 7.6
20/01:52am 24.7 28.3 23.8 95 0.6 WNW 11 24 6 13 1005.0 1004.7 7.6
20/01:50am 24.7 28.7 23.8 95 0.6 WNW 9 17 5 9 1005.0 1004.7 7.6
20/01:30am 24.8 28.1 23.8 94 0.7 WNW 13 20 7 11 1004.9 1004.6 7.6
20/01:00am 25.0 27.6 24.0 94 0.7 NW 17 28 9 15 1005.4 1005.1 7.4
20/12:50am 25.0 28.1 24.1 95 0.6 NW 15 22 8 12 1005.5 1005.2 7.4
20/12:30am 25.0 27.8 24.3 96 0.5 NNW 17 20 9 11 1005.8 1005.5 6.8
20/12:00am 25.1 27.8 24.1 94 0.7 NW 17 28 9 15 1006.2 1005.9 6.8
 
Date/Time
CST
Temp
°C
App
Temp
°C
Dew
Point
°C
Rel
Hum
%
Delta-T
°C
Wind Press
QNH
hPa
Press
MSL
hPa
Rain since
9am
mm
Dir  Spd
km/h
Gust
km/h
Spd
kts
Gust
kts
19/11:30pm 25.1 28.2 24.1 94 0.7 NW 15 20 8 11 1006.4 1006.1 6.6
19/11:00pm 24.9 28.7 24.0 95 0.6 WNW 11 17 6 9 1006.2 1005.9 6.6
19/10:38pm 24.9 28.7 24.0 95 0.6 W 11 20 6 11 1006.0 1005.7 6.6
19/10:30pm 24.9 28.7 24.0 95 0.6 W 11 17 6 9 1005.9 1005.6 6.6
19/10:08pm 24.5 28.2 23.9 96 0.4 WNW 11 17 6 9 1006.4 1006.1 6.6
19/10:00pm 24.3 28.3 23.7 96 0.4 WNW 9 17 5 9 1006.2 1005.9 6.6
19/09:30pm 24.3 28.5 23.4 95 0.6 WNW 7 9 4 5 1005.6 1005.3 6.6
19/09:02pm 24.4 27.4 23.4 94 0.7 WNW 13 17 7 9 1005.9 1005.6 6.6
19/09:00pm 24.4 27.5 23.5 95 0.6 WNW 13 17 7 9 1005.8 1005.5 6.6
19/08:30pm 24.7 27.5 23.7 94 0.7 W 15 20 8 11 1005.9 1005.6 4.8
19/08:17pm 25.0 27.1 23.7 92 0.9 W 19 28 10 15 1005.5 1005.2 4.6
19/08:00pm 25.8 28.9 24.2 91 1.1 WSW 15 28 8 15 1005.3 1005.0 4.4
19/07:30pm 27.8 31.1 24.5 82 2.3 WNW 15 26 8 14 1004.8 1004.5 4.4
19/07:00pm 27.8 30.3 24.5 82 2.3 NW 19 30 10 16 1004.4 1004.1 4.4
19/06:30pm 27.8 30.3 24.4 82 2.4 NW 19 32 10 17 1003.8 1003.5 4.4
19/06:00pm 27.8 29.7 24.4 82 2.4 NW 22 37 12 20 1003.7 1003.4 4.4
19/05:30pm 27.1 29.0 25.0 88 1.5 NW 24 35 13 19 1003.5 1003.2 4.4
19/05:00pm 27.6 28.4 24.4 83 2.2 NW 28 43 15 23 1003.5 1003.2 4.4
19/04:30pm 27.5 29.1 24.5 84 2.1 NW 24 39 13 21 1003.7 1003.4 4.4
19/04:00pm 27.3 27.1 24.4 84 2.0 NW 33 50 18 27 1003.6 1003.3 4.4
19/03:54pm 27.5 28.3 24.5 84 2.1 NW 28 50 15 27 1003.6 1003.3 4.4
19/03:30pm 27.5 28.4 24.6 84 2.0 NW 28 39 15 21 1003.5 1003.2 4.4
19/03:00pm 27.4 28.6 24.5 84 2.0 NW 26 37 14 20 1003.6 1003.3 4.4
19/02:30pm 26.7 29.0 25.0 90 1.2 NW 22 28 12 15 1004.0 1003.7 4.4
19/02:01pm 26.0 29.2 25.0 94 0.7 NW 17 24 9 13 1004.5 1004.2 4.4
19/02:00pm 25.9 29.1 24.9 94 0.7 NW 17 24 9 13 1004.5 1004.2 4.4
19/01:48pm 25.8 28.9 24.8 94 0.7 NW 17 24 9 13 1004.7 1004.4 4.2
19/01:30pm 25.6 28.0 24.6 94 0.7 NW 20 30 11 16 1004.8 1004.5 4.2
19/01:11pm 25.6 27.7 24.7 95 0.6 NW 22 33 12 18 1005.3 1005.0 4.2
19/01:00pm 25.6 26.9 24.6 94 0.7 NW 26 41 14 22 1005.6 1005.3 4.2
19/12:44pm 25.6 27.3 24.7 95 0.6 NW 24 39 13 21 1006.1 1005.8 3.6
19/12:30pm 25.7 27.4 24.7 94 0.7 WNW 24 35 13 19 1006.1 1005.8 2.0
19/12:14pm 27.0 27.4 23.7 82 2.3 NW 28 44 15 24 1006.1 1005.8 0.6
19/12:00pm 29.5 31.2 24.0 72 3.8 NW 22 37 12 20 1006.0 1005.7 0.0
19/11:30am 28.9 32.0 24.8 78 2.9 WNW 17 30 9 16 1006.4 1006.1 0.0
19/11:00am 29.2 30.4 23.9 73 3.7 NW 24 35 13 19 1006.3 1006.0 0.0
19/10:46am 28.9 30.9 24.6 77 3.0 NW 22 32 12 17 1006.4 1006.1 0.0
19/10:30am 29.0 31.6 24.9 78 2.9 NW 20 32 11 17 1006.5 1006.2 0.0
19/10:00am 27.4 29.9 24.7 85 1.9 NW 20 30 11 16 1006.7 1006.4 0.0
19/09:30am 26.7 29.2 24.5 88 1.5 NW 19 24 10 13 1007.1 1006.8 0.0
19/09:00am 26.4 28.9 24.4 89 1.4 NW 19 28 10 15 1007.3 1007.0 11.4

Other Formats:

Comma delimited format used in spreadsheet applications
http://www.bom.gov.au/fwo/IDD60801/IDD60801.94150.axf

JavaScript Object Notation format (JSON) in row-major order
http://www.bom.gov.au/fwo/IDD60801/IDD60801.94150.json